Time,TemperatureF,DewpointF,PressureIn,WindDirection,WindDirectionDegrees,WindSpeedMPH,WindSpeedGustMPH,Humidity,HourlyPrecipIn,Conditions,Clouds,dailyrainin,SoftwareType,DateUTC
2013-01-19 04:01:00,32.2,13.8,29.68,WSW,249,2.0,6.9,46,0.00,,,-99.99,FreeWX 2.04,2013-01-19 09:01:00,
2013-01-19 04:02:00,32.0,13.1,29.65,WSW,249,2.0,0.0,45,0.00,,,-99.99,FreeWX 2.04,2013-01-19 09:02:00,
2013-01-19 04:10:00,31.8,12.9,29.65,WSW,239,2.0,6.9,45,0.00,,,-99.99,FreeWX 2.04,2013-01-19 09:10:00,
2013-01-19 04:15:00,32.0,13.6,29.65,SW,231,3.0,8.7,46,0.00,,,-99.99,FreeWX 2.04,2013-01-19 09:15:00,
2013-01-19 04:20:00,31.6,12.7,29.65,WSW,237,2.0,5.8,45,0.00,,,-99.99,FreeWX 2.04,2013-01-19 09:20:00,
2013-01-19 04:25:00,31.3,12.4,29.65,WSW,240,1.0,6.7,45,0.00,,,-99.99,FreeWX 2.04,2013-01-19 09:25:00,
2013-01-19 04:30:00,31.3,12.9,29.65,WSW,242,2.0,6.3,46,0.00,,,-99.99,FreeWX 2.04,2013-01-19 09:30:00,
2013-01-19 04:35:00,31.1,12.7,29.65,WSW,241,1.0,4.0,46,0.00,,,-99.99,FreeWX 2.04,2013-01-19 09:35:00,
2013-01-19 04:40:00,30.9,12.6,29.65,WSW,244,1.0,5.4,46,0.00,,,-99.99,FreeWX 2.04,2013-01-19 09:40:00,
2013-01-19 04:45:00,31.3,13.5,29.65,West,259,2.0,5.8,47,0.00,,,-99.99,FreeWX 2.04,2013-01-19 09:45:00,
2013-01-19 04:50:00,31.3,13.5,29.65,West,264,1.0,4.0,47,0.00,,,-99.99,FreeWX 2.04,2013-01-19 09:50:00,
2013-01-19 04:55:00,31.3,13.8,29.65,West,259,1.0,6.7,48,0.00,,,-99.99,FreeWX 2.04,2013-01-19 09:55:00,
2013-01-19 05:00:00,31.3,13.8,29.65,WSW,252,2.0,5.8,48,0.00,,,-99.99,FreeWX 2.04,2013-01-19 10:00:00,
2013-01-19 05:05:00,31.6,14.7,29.68,WSW,255,3.0,4.9,49,0.00,,,-99.99,FreeWX 2.04,2013-01-19 10:05:00,
2013-01-19 05:10:00,31.8,14.9,29.68,WSW,251,2.0,5.4,49,0.00,,,-99.99,FreeWX 2.04,2013-01-19 10:10:00,
2013-01-19 05:15:00,32.2,15.6,29.68,WSW,244,2.0,5.8,50,0.00,,,-99.99,FreeWX 2.04,2013-01-19 10:15:00,
2013-01-19 05:20:00,32.5,16.0,29.68,WSW,237,3.0,5.8,50,0.00,,,-99.99,FreeWX 2.04,2013-01-19 10:20:00,
2013-01-19 05:25:00,32.7,16.2,29.68,SW,223,2.0,5.8,50,0.00,,,-99.99,FreeWX 2.04,2013-01-19 10:25:00,
2013-01-19 05:30:00,33.1,16.5,29.68,SW,226,3.0,5.4,50,0.00,,,-99.99,FreeWX 2.04,2013-01-19 10:30:00,
2013-01-19 05:35:00,33.3,16.7,29.65,WSW,247,3.0,5.8,50,0.00,,,-99.99,FreeWX 2.04,2013-01-19 10:35:00,
2013-01-19 05:40:00,33.3,16.2,29.65,West,263,3.0,6.3,49,0.00,,,-99.99,FreeWX 2.04,2013-01-19 10:40:00,
2013-01-19 05:45:00,33.3,16.2,29.65,West,267,2.0,4.9,49,0.00,,,-99.99,FreeWX 2.04,2013-01-19 10:45:00,
2013-01-19 05:50:00,33.4,16.3,29.68,West,261,2.0,6.9,49,0.00,,,-99.99,FreeWX 2.04,2013-01-19 10:50:00,
2013-01-19 05:55:00,33.4,16.3,29.68,WSW,246,3.0,6.3,49,0.00,,,-99.99,FreeWX 2.04,2013-01-19 10:55:00,
2013-01-19 07:48:00,34.0,17.2,29.71,North,-999,0.0,3.6,50,0.00,,,-99.99,FreeWX 2.04,2013-01-19 12:48:00,
2013-01-19 07:53:00,34.0,17.2,29.71,North,-999,0.0,4.0,50,0.00,,,-99.99,FreeWX 2.04,2013-01-19 12:53:00,
2013-01-19 07:58:00,34.0,17.2,29.71,North,-999,0.0,4.0,50,0.00,,,-99.99,FreeWX 2.04,2013-01-19 12:58:00,
2013-01-19 08:03:00,34.2,17.4,29.71,North,-999,0.0,4.0,50,0.00,,,-99.99,FreeWX 2.04,2013-01-19 13:03:00,
2013-01-19 08:08:00,34.2,17.4,29.71,North,-999,0.0,4.5,50,0.00,,,-99.99,FreeWX 2.04,2013-01-19 13:08:00,
2013-01-19 08:13:00,34.3,18.1,29.71,SW,234,1.0,4.5,51,0.00,,,-99.99,FreeWX 2.04,2013-01-19 13:13:00,
2013-01-19 08:18:00,34.3,18.1,29.71,North,-999,0.0,3.1,51,0.00,,,-99.99,FreeWX 2.04,2013-01-19 13:18:00,
2013-01-19 08:23:00,34.5,18.3,29.71,North,-999,0.0,4.9,51,0.00,,,-99.99,FreeWX 2.04,2013-01-19 13:23:00,
2013-01-19 08:28:00,34.5,18.3,29.71,North,-999,0.0,4.9,51,0.00,,,-99.99,FreeWX 2.04,2013-01-19 13:28:00,
2013-01-19 08:33:00,34.7,18.5,29.71,North,-999,0.0,4.9,51,0.00,,,-99.99,FreeWX 2.04,2013-01-19 13:33:00,
2013-01-19 08:38:00,34.7,18.5,29.71,North,-999,0.0,0.0,51,0.00,,,-99.99,FreeWX 2.04,2013-01-19 13:38:00,
2013-01-19 08:43:00,34.9,18.7,29.71,North,-999,0.0,4.0,51,0.00,,,-99.99,FreeWX 2.04,2013-01-19 13:43:00,
2013-01-19 08:48:00,35.1,18.9,29.71,North,-999,0.0,4.0,51,0.00,,,-99.99,FreeWX 2.04,2013-01-19 13:48:00,
2013-01-19 08:53:00,35.1,18.9,29.71,North,-999,0.0,0.0,51,0.00,,,-99.99,FreeWX 2.04,2013-01-19 13:53:00,
2013-01-19 08:58:00,35.2,18.9,29.71,North,-999,0.0,4.5,51,0.00,,,-99.99,FreeWX 2.04,2013-01-19 13:58:00,
2013-01-19 09:03:00,35.4,19.0,29.71,North,-999,0.0,0.0,51,0.00,,,-99.99,FreeWX 2.04,2013-01-19 14:03:00,
2013-01-19 09:08:00,35.6,19.2,29.71,North,-999,0.0,0.0,51,0.00,,,-99.99,FreeWX 2.04,2013-01-19 14:08:00,
2013-01-19 09:13:00,35.8,19.4,29.71,North,-999,0.0,0.0,51,0.00,,,-99.99,FreeWX 2.04,2013-01-19 14:13:00,
2013-01-19 09:18:00,36.0,19.6,29.71,North,-999,0.0,0.0,51,0.00,,,-99.99,FreeWX 2.04,2013-01-19 14:18:00,
2013-01-19 09:23:00,36.1,19.8,29.71,North,-999,0.0,3.6,51,0.00,,,-99.99,FreeWX 2.04,2013-01-19 14:23:00,
2013-01-19 09:28:00,36.1,19.8,29.71,North,-999,0.0,3.6,51,0.00,,,-99.99,FreeWX 2.04,2013-01-19 14:28:00,
2013-01-19 09:33:00,36.3,19.9,29.71,North,-999,0.0,0.0,51,0.00,,,-99.99,FreeWX 2.04,2013-01-19 14:33:00,
2013-01-19 09:38:00,36.5,20.1,29.71,North,-999,0.0,4.9,51,0.00,,,-99.99,FreeWX 2.04,2013-01-19 14:38:00,
2013-01-19 09:43:00,36.7,20.3,29.71,North,-999,0.0,4.0,51,0.00,,,-99.99,FreeWX 2.04,2013-01-19 14:43:00,
2013-01-19 09:48:00,36.9,20.5,29.71,WSW,237,1.0,4.9,51,0.00,,,-99.99,FreeWX 2.04,2013-01-19 14:48:00,
2013-01-19 09:53:00,37.2,20.8,29.71,North,-999,0.0,0.0,51,0.00,,,-99.99,FreeWX 2.04,2013-01-19 14:53:00,
2013-01-19 09:58:00,37.6,21.2,29.71,North,-999,0.0,0.0,51,0.00,,,-99.99,FreeWX 2.04,2013-01-19 14:58:00,
2013-01-19 10:03:00,37.9,21.4,29.71,North,-999,0.0,4.5,51,0.00,,,-99.99,FreeWX 2.04,2013-01-19 15:03:00,
2013-01-19 10:08:00,38.1,21.2,29.71,North,-999,0.0,4.9,50,0.00,,,-99.99,FreeWX 2.04,2013-01-19 15:08:00,
2013-01-19 10:13:00,37.9,21.0,29.71,North,-999,0.0,3.6,50,0.00,,,-99.99,FreeWX 2.04,2013-01-19 15:13:00,
2013-01-19 10:18:00,37.8,20.8,29.74,North,-999,0.0,0.0,50,0.00,,,-99.99,FreeWX 2.04,2013-01-19 15:18:00,
2013-01-19 10:23:00,37.9,21.0,29.74,North,-999,0.0,0.0,50,0.00,,,-99.99,FreeWX 2.04,2013-01-19 15:23:00,
2013-01-19 10:28:00,37.8,20.3,29.74,North,-999,0.0,0.0,49,0.00,,,-99.99,FreeWX 2.04,2013-01-19 15:28:00,
2013-01-19 10:34:00,37.9,20.5,29.74,North,-999,0.0,4.0,49,0.00,,,-99.99,FreeWX 2.04,2013-01-19 15:34:00,
2013-01-19 10:39:00,37.9,20.5,29.74,North,-999,0.0,0.0,49,0.00,,,-99.99,FreeWX 2.04,2013-01-19 15:39:00,
2013-01-19 10:44:00,38.3,20.8,29.74,North,-999,0.0,0.0,49,0.00,,,-99.99,FreeWX 2.04,2013-01-19 15:44:00,
2013-01-19 10:49:00,38.5,21.0,29.71,North,-999,0.0,0.0,49,0.00,,,-99.99,FreeWX 2.04,2013-01-19 15:49:00,
2013-01-19 10:54:00,38.7,21.2,29.71,North,-999,0.0,0.0,49,0.00,,,-99.99,FreeWX 2.04,2013-01-19 15:54:00,
2013-01-19 10:59:00,38.8,21.4,29.71,North,-999,0.0,0.0,49,0.00,,,-99.99,FreeWX 2.04,2013-01-19 15:59:00,
2013-01-19 11:04:00,39.0,21.6,29.71,North,-999,0.0,4.0,49,0.00,,,-99.99,FreeWX 2.04,2013-01-19 16:04:00,
2013-01-19 11:09:00,39.2,21.7,29.71,SW,228,1.0,4.9,49,0.00,,,-99.99,FreeWX 2.04,2013-01-19 16:09:00,
2013-01-19 11:14:00,39.2,21.2,29.71,SW,234,1.0,3.6,48,0.00,,,-99.99,FreeWX 2.04,2013-01-19 16:14:00,
2013-01-19 11:19:00,39.4,21.4,29.71,WSW,247,1.0,5.4,48,0.00,,,-99.99,FreeWX 2.04,2013-01-19 16:19:00,
2013-01-19 11:24:00,39.6,21.6,29.71,SW,235,1.0,4.0,48,0.00,,,-99.99,FreeWX 2.04,2013-01-19 16:24:00,
2013-01-19 11:29:00,39.9,21.9,29.71,North,-999,0.0,3.6,48,0.00,,,-99.99,FreeWX 2.04,2013-01-19 16:29:00,
2013-01-19 11:34:00,39.9,20.8,29.71,North,-999,0.0,5.4,46,0.00,,,-99.99,FreeWX 2.04,2013-01-19 16:34:00,
2013-01-19 11:39:00,39.9,20.8,29.71,West,274,1.0,3.6,46,0.00,,,-99.99,FreeWX 2.04,2013-01-19 16:39:00,
2013-01-19 11:44:00,39.9,20.8,29.71,North,-999,0.0,0.0,46,0.00,,,-99.99,FreeWX 2.04,2013-01-19 16:44:00,
2013-01-19 11:49:00,39.6,19.4,29.68,WSW,237,1.0,5.4,44,0.00,,,-99.99,FreeWX 2.04,2013-01-19 16:49:00,
2013-01-19 11:54:00,39.2,19.2,29.68,WSW,252,2.0,5.8,44,0.00,,,-99.99,FreeWX 2.04,2013-01-19 16:54:00,
2013-01-19 11:59:00,39.0,19.0,29.68,WSW,244,2.0,5.8,44,0.00,,,-99.99,FreeWX 2.04,2013-01-19 16:59:00,
2013-01-19 12:04:00,39.0,19.0,29.68,WSW,243,2.0,4.9,44,0.00,,,-99.99,FreeWX 2.04,2013-01-19 17:04:00,
2013-01-19 12:09:00,38.8,18.9,29.68,WSW,241,2.0,4.5,44,0.00,,,-99.99,FreeWX 2.04,2013-01-19 17:09:00,
2013-01-19 12:14:00,38.8,18.9,29.68,SW,231,3.0,7.4,44,0.00,,,-99.99,FreeWX 2.04,2013-01-19 17:14:00,
2013-01-19 12:19:00,38.7,18.7,29.68,WSW,241,2.0,4.9,44,0.00,,,-99.99,FreeWX 2.04,2013-01-19 17:19:00,
2013-01-19 12:24:00,38.7,18.7,29.68,WSW,240,2.0,6.9,44,0.04,,,-99.99,FreeWX 2.04,2013-01-19 17:24:00,
2013-01-19 12:29:00,38.5,18.5,29.68,WSW,237,3.0,6.7,44,0.04,,,-99.99,FreeWX 2.04,2013-01-19 17:29:00,
2013-01-19 12:34:00,38.5,18.5,29.65,WSW,247,2.0,5.4,44,0.04,,,-99.99,FreeWX 2.04,2013-01-19 17:34:00,
2013-01-19 12:39:00,38.5,18.5,29.65,WSW,257,2.0,4.9,44,0.04,,,-99.99,FreeWX 2.04,2013-01-19 17:39:00,
2013-01-19 12:44:00,38.5,19.0,29.65,West,261,2.0,5.4,45,0.04,,,-99.99,FreeWX 2.04,2013-01-19 17:44:00,
2013-01-19 12:49:00,38.5,19.0,29.65,WSW,254,2.0,6.9,45,0.04,,,-99.99,FreeWX 2.04,2013-01-19 17:49:00,
2013-01-19 12:54:00,38.3,18.9,29.65,WSW,248,1.0,4.9,45,0.04,,,-99.99,FreeWX 2.04,2013-01-19 17:54:00,
2013-01-19 12:59:00,38.1,19.2,29.65,WSW,244,1.0,5.8,46,0.04,,,-99.99,FreeWX 2.04,2013-01-19 17:59:00,
2013-01-19 13:09:00,37.8,18.9,29.62,WSW,242,3.0,6.7,46,0.04,,,-99.99,FreeWX 2.04,2013-01-19 18:09:00,
2013-01-19 13:14:00,37.6,19.2,29.62,WSW,248,2.0,5.8,47,0.04,,,-99.99,FreeWX 2.04,2013-01-19 18:14:00,
2013-01-19 13:30:00,37.0,19.2,29.62,SW,221,2.0,5.8,48,0.04,,,-99.99,FreeWX 2.04,2013-01-19 18:30:00,
2013-01-19 13:35:00,36.9,19.6,29.62,WSW,238,2.0,5.4,49,0.04,,,-99.99,FreeWX 2.04,2013-01-19 18:35:00,
2013-01-19 13:40:00,36.3,19.0,29.62,SW,236,3.0,6.7,49,0.04,,,-99.99,FreeWX 2.04,2013-01-19 18:40:00,
2013-01-19 13:45:00,36.1,19.4,29.62,SW,225,3.0,5.8,50,0.04,,,-99.99,FreeWX 2.04,2013-01-19 18:45:00,
2013-01-19 13:50:00,36.0,19.2,29.62,SW,229,2.0,5.4,50,0.04,,,-99.99,FreeWX 2.04,2013-01-19 18:50:00,
2013-01-19 13:55:00,35.8,19.0,29.62,SW,235,2.0,5.4,50,0.04,,,-99.99,FreeWX 2.04,2013-01-19 18:55:00,
2013-01-19 14:00:00,35.4,19.0,29.62,SW,229,2.0,6.3,51,0.04,,,-99.99,FreeWX 2.04,2013-01-19 19:00:00,
2013-01-19 14:05:00,35.2,18.9,29.59,SW,222,2.0,4.9,51,0.04,,,-99.99,FreeWX 2.04,2013-01-19 19:05:00,
2013-01-19 14:10:00,35.1,18.9,29.59,SW,233,2.0,5.8,51,0.08,,,-99.99,FreeWX 2.04,2013-01-19 19:10:00,
2013-01-19 14:15:00,35.1,19.2,29.59,WSW,243,1.0,4.0,52,0.08,,,-99.99,FreeWX 2.04,2013-01-19 19:15:00,
2013-01-19 14:20:00,35.1,19.2,29.59,WSW,240,1.0,5.4,52,0.04,,,-99.99,FreeWX 2.04,2013-01-19 19:20:00,
2013-01-19 14:30:00,35.1,19.8,29.59,WSW,242,1.0,5.4,53,0.04,,,-99.99,FreeWX 2.04,2013-01-19 19:30:00,
2013-01-19 14:35:00,35.1,19.8,29.56,WSW,251,2.0,7.8,53,0.04,,,-99.99,FreeWX 2.04,2013-01-19 19:35:00,
2013-01-19 14:40:00,35.1,20.1,29.56,WSW,239,2.0,6.9,54,0.04,,,-99.99,FreeWX 2.04,2013-01-19 19:40:00,
2013-01-19 14:45:00,35.1,20.1,29.56,SW,233,2.0,4.5,54,0.04,,,-99.99,FreeWX 2.04,2013-01-19 19:45:00,
2013-01-19 14:51:00,35.1,20.5,29.56,WSW,238,2.0,5.4,55,0.04,,,-99.99,FreeWX 2.04,2013-01-19 19:51:00,
2013-01-19 14:56:00,35.1,21.0,29.56,WSW,239,2.0,6.7,56,0.04,,,-99.99,FreeWX 2.04,2013-01-19 19:56:00,
2013-01-19 15:27:00,34.3,22.3,29.53,SW,235,2.0,5.4,61,0.04,,,-99.99,FreeWX 2.04,2013-01-19 20:27:00,
2013-01-19 15:38:00,34.5,23.2,29.53,SW,235,2.0,6.7,63,0.04,,,-99.99,FreeWX 2.04,2013-01-19 20:38:00,
2013-01-19 15:43:00,34.3,23.0,29.53,SW,235,3.0,7.4,63,0.04,,,-99.99,FreeWX 2.04,2013-01-19 20:43:00,
2013-01-19 15:53:00,34.3,23.4,29.53,SW,234,3.0,5.4,64,0.04,,,-99.99,FreeWX 2.04,2013-01-19 20:53:00,
2013-01-19 15:58:00,34.3,23.9,29.53,SW,233,3.0,6.3,65,0.04,,,-99.99,FreeWX 2.04,2013-01-19 20:58:00,
2013-01-19 16:03:00,34.3,24.3,29.53,SW,233,2.0,5.4,66,0.04,,,-99.99,FreeWX 2.04,2013-01-19 21:03:00,
2013-01-19 16:08:00,34.5,24.4,29.53,SW,229,2.0,5.4,66,0.04,,,-99.99,FreeWX 2.04,2013-01-19 21:08:00,
2013-01-19 16:24:00,34.3,24.6,29.50,SW,234,1.0,3.6,67,0.00,,,-99.99,FreeWX 2.04,2013-01-19 21:24:00,
2013-01-19 16:34:00,34.5,24.6,29.50,SW,235,1.0,4.5,67,0.00,,,-99.99,FreeWX 2.04,2013-01-19 21:34:00,
2013-01-19 16:44:00,34.5,25.0,29.50,SW,217,2.0,5.4,68,0.00,,,-99.99,FreeWX 2.04,2013-01-19 21:44:00,
2013-01-19 16:50:00,34.5,25.0,29.50,SW,228,2.0,6.9,68,0.00,,,-99.99,FreeWX 2.04,2013-01-19 21:50:00,
2013-01-19 16:55:00,34.5,25.0,29.50,WSW,237,2.0,5.8,68,0.00,,,-99.99,FreeWX 2.04,2013-01-19 21:55:00,
2013-01-19 17:00:00,34.5,25.0,29.50,WSW,237,2.0,4.9,68,0.04,,,-99.99,FreeWX 2.04,2013-01-19 22:00:00,
2013-01-19 17:10:00,34.3,25.2,29.50,WSW,243,1.0,4.5,69,0.04,,,-99.99,FreeWX 2.04,2013-01-19 22:10:00,
2013-01-19 17:15:00,34.3,25.2,29.50,WSW,245,2.0,5.8,69,0.04,,,-99.99,FreeWX 2.04,2013-01-19 22:15:00,
2013-01-19 17:25:00,34.2,25.2,29.47,SW,225,2.0,5.4,69,0.04,,,-99.99,FreeWX 2.04,2013-01-19 22:25:00,
2013-01-19 17:30:00,34.2,25.3,29.47,SW,234,3.0,6.7,70,0.04,,,-99.99,FreeWX 2.04,2013-01-19 22:30:00,
2013-01-19 17:35:00,34.0,25.2,29.47,SW,234,3.0,7.4,70,0.04,,,-99.99,FreeWX 2.04,2013-01-19 22:35:00,
2013-01-19 17:40:00,34.2,25.3,29.47,SW,232,3.0,9.2,70,0.04,,,-99.99,FreeWX 2.04,2013-01-19 22:40:00,
2013-01-19 17:45:00,34.2,25.7,29.47,SW,231,3.0,5.8,71,0.04,,,-99.99,FreeWX 2.04,2013-01-19 22:45:00,
2013-01-19 17:51:00,34.0,25.2,29.44,SW,226,3.0,4.9,70,0.04,,,-99.99,FreeWX 2.04,2013-01-19 22:51:00,
2013-01-19 17:56:00,33.8,25.0,29.44,WSW,249,3.0,6.3,70,0.00,,,-99.99,FreeWX 2.04,2013-01-19 22:56:00,
2013-01-19 18:01:00,33.8,25.3,29.44,WSW,255,3.0,6.9,71,0.00,,,-99.99,FreeWX 2.04,2013-01-19 23:01:00,
2013-01-19 18:06:00,34.0,25.5,29.44,WSW,245,3.0,6.9,71,0.00,,,-99.99,FreeWX 2.04,2013-01-19 23:06:00,
2013-01-19 18:22:00,34.0,25.9,29.44,SW,223,2.0,4.5,72,0.00,,,-99.99,FreeWX 2.04,2013-01-19 23:22:00,
2013-01-19 18:27:00,33.8,25.7,29.44,WSW,241,2.0,4.9,72,0.00,,,-99.99,FreeWX 2.04,2013-01-19 23:27:00,
2013-01-19 18:32:00,33.8,26.1,29.44,WSW,247,2.0,6.3,73,0.00,,,-99.99,FreeWX 2.04,2013-01-19 23:32:00,
2013-01-19 18:37:00,33.8,26.1,29.44,WSW,237,3.0,6.7,73,0.00,,,-99.99,FreeWX 2.04,2013-01-19 23:37:00,
2013-01-19 18:47:00,34.0,26.2,29.41,SW,230,3.0,6.7,73,0.00,,,-99.99,FreeWX 2.04,2013-01-19 23:47:00,
2013-01-19 18:58:00,34.0,26.6,29.41,WSW,248,3.0,7.4,74,0.00,,,-99.99,FreeWX 2.04,2013-01-19 23:58:00,
2013-01-19 19:03:00,34.2,26.8,29.41,WSW,240,3.0,6.9,74,0.00,,,-99.99,FreeWX 2.04,2013-01-20 00:03:00,
2013-01-19 19:08:00,34.2,26.8,29.41,WSW,247,3.0,7.4,74,0.00,,,-99.99,FreeWX 2.04,2013-01-20 00:08:00,
2013-01-19 19:13:00,34.0,26.6,29.41,WSW,242,3.0,6.9,74,0.00,,,-99.99,FreeWX 2.04,2013-01-20 00:13:00,
2013-01-19 19:18:00,34.2,26.8,29.41,WSW,242,3.0,5.8,74,0.00,,,-99.99,FreeWX 2.04,2013-01-20 00:18:00,
2013-01-19 19:23:00,34.3,27.0,29.41,WSW,249,3.0,5.8,74,0.00,,,-99.99,FreeWX 2.04,2013-01-20 00:23:00,
2013-01-19 19:28:00,34.7,27.7,29.41,WSW,246,3.0,6.7,75,0.00,,,-99.99,FreeWX 2.04,2013-01-20 00:28:00,
2013-01-19 19:33:00,35.1,27.9,29.38,WSW,240,3.0,8.3,75,0.00,,,-99.99,FreeWX 2.04,2013-01-20 00:33:00,
2013-01-19 19:38:00,34.9,27.5,29.38,SW,230,4.0,6.3,74,0.00,,,-99.99,FreeWX 2.04,2013-01-20 00:38:00,
2013-01-19 19:43:00,34.9,27.5,29.38,SW,236,4.0,6.9,74,0.00,,,-99.99,FreeWX 2.04,2013-01-20 00:43:00,
2013-01-19 19:48:00,34.5,27.1,29.38,WSW,252,4.0,4.9,74,0.00,,,-99.99,FreeWX 2.04,2013-01-20 00:48:00,
2013-01-19 20:03:00,34.5,26.4,29.38,WSW,246,4.0,7.8,72,0.00,,,-99.99,FreeWX 2.04,2013-01-20 01:03:00,
2013-01-19 20:08:00,34.7,26.6,29.38,WSW,250,4.0,8.3,72,0.00,,,-99.99,FreeWX 2.04,2013-01-20 01:08:00,
2013-01-19 20:13:00,34.9,26.8,29.38,WSW,251,4.0,7.4,72,0.00,,,-99.99,FreeWX 2.04,2013-01-20 01:13:00,
2013-01-19 20:18:00,35.1,26.6,29.38,WSW,252,3.0,6.7,71,0.00,,,-99.99,FreeWX 2.04,2013-01-20 01:18:00,
2013-01-19 20:23:00,35.4,27.3,29.38,WSW,253,3.0,7.8,72,0.00,,,-99.99,FreeWX 2.04,2013-01-20 01:23:00,
2013-01-19 20:28:00,35.8,27.7,29.38,WSW,253,3.0,6.9,72,0.00,,,-99.99,FreeWX 2.04,2013-01-20 01:28:00,
2013-01-19 20:33:00,36.0,27.5,29.38,WSW,253,3.0,6.7,71,0.00,,,-99.99,FreeWX 2.04,2013-01-20 01:33:00,
2013-01-19 20:38:00,36.0,27.5,29.38,WSW,252,3.0,4.5,71,0.00,,,-99.99,FreeWX 2.04,2013-01-20 01:38:00,
2013-01-19 20:43:00,36.0,27.1,29.38,WSW,251,3.0,6.9,70,0.00,,,-99.99,FreeWX 2.04,2013-01-20 01:43:00,
2013-01-19 20:48:00,36.0,26.8,29.35,WSW,244,4.0,8.7,69,0.00,,,-99.99,FreeWX 2.04,2013-01-20 01:48:00,
2013-01-19 20:53:00,35.8,26.6,29.35,WSW,247,4.0,6.3,69,0.00,,,-99.99,FreeWX 2.04,2013-01-20 01:53:00,
2013-01-19 20:58:00,35.6,26.1,29.35,WSW,250,3.0,5.4,68,0.00,,,-99.99,FreeWX 2.04,2013-01-20 01:58:00,
2013-01-19 21:03:00,35.6,26.4,29.35,WSW,244,3.0,5.8,69,0.00,,,-99.99,FreeWX 2.04,2013-01-20 02:03:00,
2013-01-19 21:08:00,35.6,26.4,29.35,WSW,249,2.0,4.5,69,0.00,,,-99.99,FreeWX 2.04,2013-01-20 02:08:00,
2013-01-19 21:13:00,35.6,26.4,29.35,WSW,246,2.0,8.7,69,0.00,,,-99.99,FreeWX 2.04,2013-01-20 02:13:00,
2013-01-19 21:18:00,35.4,25.9,29.35,WSW,245,3.0,7.4,68,0.00,,,-99.99,FreeWX 2.04,2013-01-20 02:18:00,
2013-01-19 21:24:00,35.6,26.4,29.35,WSW,254,4.0,7.4,69,0.00,,,-99.99,FreeWX 2.04,2013-01-20 02:24:00,
2013-01-19 21:29:00,35.6,26.4,29.35,WSW,254,4.0,8.3,69,0.00,,,-99.99,FreeWX 2.04,2013-01-20 02:29:00,
2013-01-19 21:34:00,35.8,27.0,29.35,WSW,251,3.0,6.3,70,0.00,,,-99.99,FreeWX 2.04,2013-01-20 02:34:00,
2013-01-19 21:39:00,35.8,27.0,29.35,WSW,245,3.0,6.9,70,0.00,,,-99.99,FreeWX 2.04,2013-01-20 02:39:00,
2013-01-19 21:44:00,36.0,27.1,29.35,WSW,247,3.0,8.3,70,0.00,,,-99.99,FreeWX 2.04,2013-01-20 02:44:00,
2013-01-19 21:49:00,36.3,27.9,29.32,WSW,253,3.0,7.4,71,0.00,,,-99.99,FreeWX 2.04,2013-01-20 02:49:00,
2013-01-19 21:59:00,36.3,27.9,29.32,WSW,251,3.0,6.3,71,0.00,,,-99.99,FreeWX 2.04,2013-01-20 02:59:00,